Accueil
METAR-TAF:

METAR-TAF

Aéroports :

Waterville Robert LaFleur Airport

Waterville, Maine, États-Unis

latitude: 44-32N, longitude: 069-41W, altitude: 101 m

Observation

Le bulletin a été fait il y a 28 minutes, à 07:56 UTC
Vent 5 kt de sud-ouest
Température -7°C
Humidité 100%
Pression 1015 hPa
Visibilité: 16.1 km
Ciel clair

METAR: KWVL 170756Z AUTO 23005KT 10SM CLR M07/M07 A2998 RMK AO2 SLP185 T10671072 FZRANO

Heure: 03:24 (08:24 UTC)


TAF: absent

Observations et prévisions météorologiques de plus de 4000 aéroports (messages METAR et TAF).

Les stations disponibles sont représentées par des disques jaunes et rouges sur la carte.

Passer la souris dessus pour voir le nom de la station.

Cliquer dessus pour voir les observations et prévisions météorologiques.

Pour changer de carte: cliquez sur les boutons verts avec une croix noire pour zoomer, sur le bouton vert avec un tiret pour effectuer un zoom arrière, ou sur les flèches vertes pour les cartes adjacentes.


METAR-TAF: